Armada Township, Michigan
Current Conditions -  °F | °C
As of 9:58 PM on Friday 28 Nov 2014 (Local Time) from KMTC Reporting Station
Broken Clouds Broken Clouds  
Wind Chill: -7°   Ceiling: 7500
Heat Index: -2°   Visibility: 10mi
Dew Point: -2°   Wind: 9mph
Humidity: 99%   Direction: 170°S
Pressure: 30.1"   Gusts: NA
Location:  42.8463°N, 82.9201°W
Report Text: KMTC 290258Z AUTO 17008KT 10SM FEW013 SCT043 SCT050 BKN075 M02/M02 A3010 RMK AO2 DZE0205 CIG 055 RWY01 SLP205 P0000 60001 T10211022 57014
Loading
Personal Weather Stations






























Interactive Weather Map New forecast layout! Learn more

10-Day Weather Forecast

Advertisements
Track Severe Weather on mobile